Time;durP1;ratioP1;P1;durP2;ratioP2;P2;SDS_P1;SDS_P2;PMS_P1;PMS_P2;Temp;Humidity;BMP_temperature;BMP_pressure;BME280_temperature;BME280_humidity;BME280_pressure;Samples;Min_cycle;Max_cycle;Signal;HPM_P1;HPM_P2
2022/02/28 00:01:22;;;;;;;6.67;4.70;;;;;;;1.57;66.42;102073.53;1758295;81;20967;-71
2022/02/28 00:03:55;;;;;;;8.18;4.80;;;;;;;1.58;66.39;102070.07;1758575;81;20998;-71
2022/02/28 00:06:22;;;;;;;7.78;5.30;;;;;;;1.61;66.25;102068.80;1758555;81;20979;-73
2022/02/28 00:08:50;;;;;;;6.60;4.72;;;;;;;1.60;66.26;102072.23;1758263;81;20947;-72
2022/02/28 00:11:17;;;;;;;8.68;4.87;;;;;;;1.60;66.16;102070.94;1758593;81;20928;-73
2022/02/28 00:13:45;;;;;;;6.47;4.35;;;;;;;1.61;66.14;102073.97;1758445;81;21378;-71
2022/02/28 00:16:12;;;;;;;5.40;4.67;;;;;;;1.63;66.05;102067.94;1758651;81;20913;-72
2022/02/28 00:18:39;;;;;;;6.97;4.30;;;;;;;1.64;65.97;102065.77;1758617;81;20923;-74
2022/02/28 00:21:07;;;;;;;4.78;4.17;;;;;;;1.64;65.84;102063.18;1758440;81;20920;-73
2022/02/28 00:23:34;;;;;;;5.95;4.47;;;;;;;1.64;65.74;102067.06;1758523;81;20978;-72
2022/02/28 00:26:02;;;;;;;8.35;4.90;;;;;;;1.65;65.71;102067.51;1758049;81;20924;-73
2022/02/28 00:28:30;;;;;;;8.40;4.30;;;;;;;1.62;65.71;102062.75;1757853;80;20971;-73
2022/02/28 00:30:57;;;;;;;4.62;3.87;;;;;;;1.63;65.76;102060.62;1758026;80;21351;-72
2022/02/28 00:33:23;;;;;;;4.20;3.65;;;;;;;1.63;65.62;102064.06;1758256;81;21434;-73
2022/02/28 00:35:51;;;;;;;6.60;4.45;;;;;;;1.65;65.62;102065.36;1757899;80;20877;-72
2022/02/28 00:38:18;;;;;;;4.33;3.92;;;;;;;1.65;65.54;102065.36;1757981;80;20932;-72
2022/02/28 00:40:46;;;;;;;4.67;3.75;;;;;;;1.68;65.59;102069.23;1757934;80;20939;-72
2022/02/28 00:43:13;;;;;;;5.62;4.58;;;;;;;1.67;65.52;102068.81;1757882;81;20975;-73
2022/02/28 00:45:41;;;;;;;5.87;3.77;;;;;;;1.67;65.46;102067.52;1757899;81;21140;-73
2022/02/28 00:48:08;;;;;;;5.65;4.05;;;;;;;1.68;65.44;102064.06;1758173;80;20979;-71
2022/02/28 00:50:34;;;;;;;5.72;3.40;;;;;;;1.72;65.32;102063.64;1757887;81;20952;-72
2022/02/28 00:53:02;;;;;;;5.10;3.83;;;;;;;1.75;65.23;102062.33;1758116;80;20991;-72
2022/02/28 00:55:28;;;;;;;4.05;3.47;;;;;;;1.78;64.96;102060.62;1757917;81;20884;-71
2022/02/28 00:57:55;;;;;;;4.28;3.87;;;;;;;1.81;64.84;102064.48;1757914;81;21538;-72
2022/02/28 01:00:22;;;;;;;5.75;4.05;;;;;;;1.85;64.74;102064.92;1758210;81;20920;-73
2022/02/28 01:02:50;;;;;;;4.08;3.50;;;;;;;1.85;64.53;102058.45;1721961;82;21022;-72
2022/02/28 01:05:18;;;;;;;4.67;3.30;;;;;;;1.86;64.33;102064.48;1722055;83;20923;-72
2022/02/28 01:07:48;;;;;;;6.40;3.55;;;;;;;1.83;64.09;102058.03;1721969;83;21429;-72
2022/02/28 01:10:16;;;;;;;4.28;3.70;;;;;;;1.81;63.97;102066.22;1722090;83;21114;-72
2022/02/28 01:12:44;;;;;;;5.10;4.12;;;;;;;1.79;63.87;102064.91;1721753;83;20923;-73
2022/02/28 01:15:11;;;;;;;4.92;3.65;;;;;;;1.80;63.71;102066.66;1710172;83;21006;-72
2022/02/28 01:17:39;;;;;;;3.65;3.10;;;;;;;1.80;63.64;102064.48;1708747;84;20943;-72
2022/02/28 01:20:07;;;;;;;6.40;3.22;;;;;;;1.78;63.45;102069.67;1708866;82;20924;-71
2022/02/28 01:22:36;;;;;;;4.78;4.15;;;;;;;1.73;63.50;102070.08;1708826;84;20884;-72
2022/02/28 01:25:04;;;;;;;4.47;3.90;;;;;;;1.73;63.59;102074.40;1709132;82;21019;-73
2022/02/28 01:27:31;;;;;;;5.30;3.83;;;;;;;1.72;63.31;102064.49;1708757;84;20944;-71
2022/02/28 01:29:58;;;;;;;5.05;3.98;;;;;;;1.68;63.13;102067.08;1708992;84;20924;-73
2022/02/28 01:32:25;;;;;;;4.12;3.62;;;;;;;1.59;63.24;102071.38;1708828;84;20920;-73
2022/02/28 01:34:51;;;;;;;5.70;3.58;;;;;;;1.57;63.28;102069.66;1708833;84;21755;-72
2022/02/28 01:37:18;;;;;;;3.98;3.08;;;;;;;1.56;63.29;102069.23;1708950;82;20909;-71
2022/02/28 01:39:46;;;;;;;4.00;3.50;;;;;;;1.57;63.22;102068.36;1708732;84;20952;-72
2022/02/28 01:42:13;;;;;;;5.55;4.45;;;;;;;1.56;63.24;102061.48;1708986;84;21421;-73
2022/02/28 01:44:41;;;;;;;4.62;3.72;;;;;;;1.55;63.32;102061.89;1708738;84;20927;-72
2022/02/28 01:47:09;;;;;;;5.50;3.95;;;;;;;1.55;63.30;102064.91;1709078;84;21253;-73
2022/02/28 01:49:37;;;;;;;5.15;3.70;;;;;;;1.55;63.32;102066.20;1708784;84;20932;-74
2022/02/28 01:52:04;;;;;;;4.75;3.92;;;;;;;1.52;63.35;102064.48;1708727;82;20988;-72
2022/02/28 01:54:31;;;;;;;3.45;3.15;;;;;;;1.54;63.33;102060.62;1708665;82;21405;-73
2022/02/28 01:56:58;;;;;;;4.70;4.17;;;;;;;1.50;63.42;102061.03;1708765;82;20904;-73
2022/02/28 01:59:25;;;;;;;4.50;3.85;;;;;;;1.50;63.74;102067.94;1708797;82;21131;-72
2022/02/28 02:01:52;;;;;;;5.03;4.25;;;;;;;1.47;64.29;102070.09;1708712;84;20948;-72
2022/02/28 02:04:18;;;;;;;5.80;4.03;;;;;;;1.38;64.86;102066.17;1709009;84;20892;-73
2022/02/28 02:06:46;;;;;;;4.83;4.37;;;;;;;1.31;65.18;102069.21;1709050;84;21003;-71
2022/02/28 02:09:12;;;;;;;5.90;4.72;;;;;;;1.21;65.81;102063.14;1708801;84;21393;-72
2022/02/28 02:11:40;;;;;;;4.78;4.00;;;;;;;1.13;66.00;102071.30;1708686;84;22017;-72
2022/02/28 02:14:10;;;;;;;6.67;4.53;;;;;;;1.04;66.39;102072.56;1708896;83;21480;-72
2022/02/28 02:16:36;;;;;;;5.10;4.60;;;;;;;0.95;66.52;102068.23;1708860;84;20864;-72
2022/02/28 02:19:04;;;;;;;7.60;5.60;;;;;;;0.87;66.97;102063.49;1709024;82;20976;-72
2022/02/28 02:21:31;;;;;;;5.33;4.40;;;;;;;0.78;67.16;102066.05;1708924;84;21346;-72
2022/02/28 02:23:58;;;;;;;7.50;5.00;;;;;;;0.71;67.17;102061.69;1708715;84;22005;-72
2022/02/28 02:26:24;;;;;;;4.85;4.12;;;;;;;0.67;67.17;102062.53;1708749;84;20861;-72
2022/02/28 02:28:51;;;;;;;9.35;5.62;;;;;;;0.66;67.12;102072.00;1709066;84;20955;-72
2022/02/28 02:31:17;;;;;;;9.93;5.35;;;;;;;0.63;67.02;102070.70;1708815;84;20960;-71
2022/02/28 02:33:45;;;;;;;7.28;5.28;;;;;;;0.59;67.15;102067.67;1708703;84;20900;-72
2022/02/28 02:36:12;;;;;;;8.10;5.50;;;;;;;0.56;67.19;102065.95;1744606;82;21090;-72
2022/02/28 02:38:39;;;;;;;8.53;5.53;;;;;;;0.54;67.08;102066.36;1744433;82;21435;-72
2022/02/28 02:41:11;;;;;;;6.10;4.55;;;;;;;0.53;67.09;102068.92;1708690;82;20841;-71
2022/02/28 02:43:35;;;;;;;7.00;4.92;;;;;;;0.43;67.07;102071.05;1708541;83;21398;-73
2022/02/28 02:46:04;;;;;;;7.22;4.75;;;;;;;0.38;67.17;102068.00;1708794;84;21446;-73
2022/02/28 02:48:31;;;;;;;6.40;4.62;;;;;;;0.36;67.19;102073.58;1744604;82;21148;-72
2022/02/28 02:51:02;;;;;;;5.97;4.80;;;;;;;0.34;67.20;102070.56;1737481;81;20889;-72
2022/02/28 02:53:29;;;;;;;8.60;4.75;;;;;;;0.31;67.18;102063.67;1744673;81;21394;-72
2022/02/28 02:55:56;;;;;;;7.12;4.87;;;;;;;0.30;67.08;102059.34;1744427;81;20901;-72
2022/02/28 02:58:23;;;;;;;8.65;4.97;;;;;;;0.26;67.19;102063.20;1745117;82;21429;-72
2022/02/28 03:00:53;;;;;;;5.03;4.42;;;;;;;0.20;67.20;102058.45;1744546;81;21126;-71
2022/02/28 03:03:22;;;;;;;6.70;4.90;;;;;;;0.15;67.25;102059.25;1707538;84;21488;-71
2022/02/28 03:05:50;;;;;;;8.23;4.90;;;;;;;0.09;67.32;102061.78;1708954;82;20936;-72
2022/02/28 03:08:18;;;;;;;6.58;5.03;;;;;;;0.04;67.42;102058.32;1708674;84;20861;-72
2022/02/28 03:10:44;;;;;;;7.65;4.87;;;;;;;0.00;67.38;102057.45;1709084;84;20920;-71
2022/02/28 03:13:11;;;;;;;7.15;5.17;;;;;;;-0.04;67.64;102061.72;1708689;84;21145;-73
2022/02/28 03:15:38;;;;;;;7.15;5.12;;;;;;;-0.08;67.74;102062.55;1714481;83;20891;-73
2022/02/28 03:18:07;;;;;;;5.25;4.35;;;;;;;-0.11;67.87;102062.53;1752464;81;20877;-72
2022/02/28 03:20:36;;;;;;;6.40;5.55;;;;;;;-0.16;67.91;102059.47;1716266;83;20978;-72
2022/02/28 03:23:03;;;;;;;5.75;4.87;;;;;;;-0.22;67.94;102053.42;1716450;83;20887;-72
2022/02/28 03:25:30;;;;;;;6.47;4.80;;;;;;;-0.27;67.92;102046.49;1716588;83;21449;-71
2022/02/28 03:27:58;;;;;;;7.80;4.85;;;;;;;-0.28;68.13;102044.78;1752199;81;21426;-72
2022/02/28 03:30:25;;;;;;;5.58;4.37;;;;;;;-0.29;68.04;102049.48;1752702;82;21398;-72
2022/02/28 03:32:52;;;;;;;7.50;5.17;;;;;;;-0.31;68.00;102048.60;1752409;82;20940;-73
2022/02/28 03:35:19;;;;;;;5.50;4.72;;;;;;;-0.35;68.21;102047.73;1716641;83;20888;-73
2022/02/28 03:37:46;;;;;;;9.95;4.60;;;;;;;-0.33;68.25;102051.19;1733671;82;21177;-73
2022/02/28 03:40:13;;;;;;;4.97;3.65;;;;;;;-0.33;68.17;102050.33;1752464;82;20959;-73
2022/02/28 03:42:40;;;;;;;6.75;4.47;;;;;;;-0.36;68.08;102052.87;1752748;82;20983;-72
2022/02/28 03:45:08;;;;;;;5.90;4.42;;;;;;;-0.36;68.22;102047.71;1716277;83;20864;-73
2022/02/28 03:47:35;;;;;;;6.22;4.30;;;;;;;-0.35;68.21;102046.87;1716615;83;20884;-71
2022/02/28 03:50:09;;;;;;;7.12;4.30;;;;;;;-0.37;67.94;102042.13;1696573;83;21170;-73
2022/02/28 03:52:38;;;;;;;4.67;3.98;;;;;;;-0.47;67.99;102042.06;1733233;82;20880;-72
2022/02/28 03:55:21;;;;;;;5.78;4.60;;;;;;;-0.49;68.14;102043.76;1715484;83;21523;-74
2022/02/28 03:57:48;;;;;;;5.30;4.72;;;;;;;-0.49;68.27;102037.31;1716607;83;20884;-72
2022/02/28 04:00:15;;;;;;;5.62;4.33;;;;;;;-0.45;68.14;102039.47;1716466;82;20936;-73
2022/02/28 04:02:42;;;;;;;5.87;4.62;;;;;;;-0.47;68.11;102049.80;1716717;83;21113;-72
2022/02/28 04:05:10;;;;;;;9.85;4.22;;;;;;;-0.49;67.97;102046.34;1716486;83;20887;-72
2022/02/28 04:07:41;;;;;;;5.78;4.33;;;;;;;-0.57;67.97;102047.11;1716428;83;20900;-73
2022/02/28 04:10:08;;;;;;;7.47;4.25;;;;;;;-0.69;68.15;102047.44;1716727;82;20880;-72
2022/02/28 04:12:38;;;;;;;6.50;4.05;;;;;;;-0.74;68.35;102048.23;1716496;82;20887;-73
2022/02/28 04:15:06;;;;;;;7.95;5.53;;;;;;;-0.79;68.50;102048.19;1749236;81;21123;-73
2022/02/28 04:17:33;;;;;;;4.85;3.83;;;;;;;-0.79;68.79;102045.61;1744930;81;21450;-73
2022/02/28 04:20:04;;;;;;;5.70;3.92;;;;;;;-0.73;68.69;102053.84;1708889;84;20932;-73
2022/02/28 04:22:32;;;;;;;7.47;5.45;;;;;;;-0.70;68.56;102058.58;1709047;82;20983;-72
2022/02/28 04:24:58;;;;;;;7.25;4.83;;;;;;;-0.71;68.44;102061.13;1708813;82;21346;-71
2022/02/28 04:27:26;;;;;;;6.37;4.47;;;;;;;-0.71;68.56;102058.55;1708759;84;21189;-73
2022/02/28 04:29:53;;;;;;;7.42;4.90;;;;;;;-0.67;68.44;102065.47;1708806;84;20913;-73
2022/02/28 04:32:21;;;;;;;5.53;4.58;;;;;;;-0.66;68.51;102060.77;1709049;82;20983;-72
2022/02/28 04:34:56;;;;;;;7.90;4.92;;;;;;;-0.64;68.51;102056.50;1708263;84;20900;-72
2022/02/28 04:37:22;;;;;;;7.40;4.62;;;;;;;-0.61;68.38;102055.23;1734341;82;21390;-73
2022/02/28 04:39:49;;;;;;;5.15;3.90;;;;;;;-0.59;68.18;102055.25;1744631;82;21191;-74
2022/02/28 04:42:16;;;;;;;8.40;4.65;;;;;;;-0.58;67.99;102062.12;1744738;81;20877;-72
2022/02/28 04:44:43;;;;;;;6.37;4.20;;;;;;;-0.60;68.04;102063.41;1744681;81;20984;-74
2022/02/28 04:47:10;;;;;;;6.72;4.05;;;;;;;-0.57;68.04;102069.88;1744770;81;20976;-73
2022/02/28 04:49:39;;;;;;;8.30;4.62;;;;;;;-0.52;67.95;102062.18;1734872;81;20986;-71
2022/02/28 04:52:07;;;;;;;5.50;4.53;;;;;;;-0.52;67.68;102064.33;1744891;81;21063;-74
2022/02/28 04:54:34;;;;;;;6.08;4.42;;;;;;;-0.53;67.75;102070.34;1744435;81;20901;-72
2022/02/28 04:57:01;;;;;;;5.55;4.42;;;;;;;-0.51;67.72;102069.94;1744812;82;20905;-73
2022/02/28 04:59:29;;;;;;;7.47;4.65;;;;;;;-0.51;67.70;102074.20;1744491;81;21470;-73
2022/02/28 05:01:57;;;;;;;8.53;4.45;;;;;;;-0.50;67.76;102071.64;1744831;81;20850;-73
2022/02/28 05:04:29;;;;;;;7.15;4.75;;;;;;;-0.47;67.74;102079.83;1706724;83;21577;-74
2022/02/28 05:06:56;;;;;;;5.60;4.15;;;;;;;-0.42;67.60;102078.17;1708720;84;20857;-72
2022/02/28 05:09:23;;;;;;;5.83;4.42;;;;;;;-0.38;67.64;102073.89;1708741;84;20921;-73
2022/02/28 05:11:50;;;;;;;7.47;5.03;;;;;;;-0.32;67.40;102073.95;1708840;84;21023;-73
2022/02/28 05:14:17;;;;;;;7.28;3.98;;;;;;;-0.35;67.25;102074.80;1708741;84;20864;-72
2022/02/28 05:16:45;;;;;;;6.10;4.55;;;;;;;-0.32;67.15;102072.23;1716235;83;21171;-73
2022/02/28 05:19:12;;;;;;;6.37;4.25;;;;;;;-0.37;66.90;102068.77;1716318;83;21472;-72
2022/02/28 05:21:39;;;;;;;8.53;4.42;;;;;;;-0.40;67.12;102066.57;1716427;83;20911;-73
2022/02/28 05:24:07;;;;;;;5.67;4.65;;;;;;;-0.38;67.39;102069.59;1716469;83;21520;-74
2022/02/28 05:26:34;;;;;;;6.67;4.03;;;;;;;-0.31;67.35;102070.51;1716416;83;20932;-73
2022/02/28 05:29:01;;;;;;;6.75;4.53;;;;;;;-0.27;67.25;102064.13;1688544;83;21179;-73
2022/02/28 05:31:28;;;;;;;5.80;3.92;;;;;;;-0.13;67.33;102065.95;1752453;82;20940;-73
2022/02/28 05:33:56;;;;;;;5.08;4.20;;;;;;;0.26;67.11;102064.05;1749143;80;20885;-73
2022/02/28 05:36:23;;;;;;;5.95;4.20;;;;;;;0.75;66.63;102064.72;1752490;82;21429;-74
2022/02/28 05:38:52;;;;;;;6.28;4.20;;;;;;;1.24;65.43;102067.05;1751931;81;20933;-74
2022/02/28 05:41:19;;;;;;;7.97;4.20;;;;;;;1.66;63.98;102065.34;1716375;83;21938;-73
2022/02/28 05:43:50;;;;;;;5.67;4.42;;;;;;;1.89;62.67;102066.20;1752663;81;21034;-74
2022/02/28 05:46:18;;;;;;;6.12;4.17;;;;;;;2.25;62.26;102061.42;1752516;80;21366;-74
2022/02/28 05:48:49;;;;;;;7.05;4.70;;;;;;;2.71;60.43;102066.44;1750930;80;20909;-73
2022/02/28 05:51:17;;;;;;;6.75;4.35;;;;;;;3.08;59.31;102063.68;1752296;81;21382;-72
2022/02/28 05:53:44;;;;;;;5.08;4.20;;;;;;;3.36;57.98;102063.09;1752413;80;21136;-73
2022/02/28 05:56:11;;;;;;;5.20;4.05;;;;;;;3.48;57.27;102060.83;1716347;83;20974;-74
2022/02/28 05:58:38;;;;;;;6.25;4.58;;;;;;;3.64;56.81;102053.34;1716295;82;20920;-74
2022/02/28 06:01:04;;;;;;;5.22;4.20;;;;;;;3.85;56.24;102065.30;1752563;80;20972;-74
2022/02/28 06:03:31;;;;;;;6.70;4.37;;;;;;;4.23;55.60;102063.22;1752524;80;21015;-72
2022/02/28 06:05:58;;;;;;;6.17;4.47;;;;;;;4.74;53.92;102062.20;1752562;82;21098;-74
2022/02/28 06:08:24;;;;;;;7.05;4.10;;;;;;;5.11;52.91;102059.09;1752428;82;20932;-72
2022/02/28 06:10:51;;;;;;;5.05;4.28;;;;;;;5.51;51.90;102065.00;1752382;80;20999;-74
2022/02/28 06:13:20;;;;;;;7.62;5.00;;;;;;;6.08;50.97;102062.34;1752411;82;20896;-73
2022/02/28 06:15:47;;;;;;;4.08;3.47;;;;;;;6.55;49.21;102067.09;1712815;83;20991;-74
2022/02/28 06:18:13;;;;;;;6.70;4.50;;;;;;;6.94;48.72;102068.94;1708662;84;21116;-74
2022/02/28 06:20:41;;;;;;;6.25;3.62;;;;;;;7.37;47.65;102059.68;1708949;83;20940;-75
2022/02/28 06:23:14;;;;;;;5.78;3.77;;;;;;;7.78;46.71;102064.78;1708691;84;20900;-75
2022/02/28 06:25:37;;;;;;;4.37;3.95;;;;;;;7.94;45.36;102064.83;1708154;82;20936;-74
2022/02/28 06:28:04;;;;;;;7.30;4.35;;;;;;;8.23;44.90;102060.14;1708994;84;20983;-74
2022/02/28 06:30:31;;;;;;;5.78;3.87;;;;;;;8.51;44.21;102063.31;1709026;84;21129;-74
2022/02/28 06:32:57;;;;;;;5.62;4.33;;;;;;;8.87;43.32;102067.08;1708616;83;20940;-74
2022/02/28 06:35:24;;;;;;;6.50;4.15;;;;;;;9.10;42.66;102075.56;1708983;84;21425;-75
2022/02/28 06:37:51;;;;;;;6.03;4.62;;;;;;;9.38;41.54;102062.91;1708590;84;20963;-75
2022/02/28 06:40:18;;;;;;;6.45;4.70;;;;;;;9.62;41.10;102071.75;1709040;84;21027;-74
2022/02/28 06:42:45;;;;;;;5.00;3.92;;;;;;;9.71;40.94;102064.44;1708772;83;21955;-74
2022/02/28 06:45:13;;;;;;;4.50;4.08;;;;;;;9.77;40.54;102059.45;1744422;81;20968;-73
2022/02/28 06:47:40;;;;;;;6.12;4.00;;;;;;;9.72;40.15;102063.54;1744453;82;20901;-73
2022/02/28 06:50:07;;;;;;;4.33;3.80;;;;;;;9.60;39.87;102057.38;1744765;82;20900;-74
2022/02/28 06:52:34;;;;;;;5.65;3.70;;;;;;;9.16;40.16;102059.69;1744433;82;20944;-74
2022/02/28 06:55:01;;;;;;;5.65;5.05;;;;;;;8.55;40.94;102054.48;1738550;82;21067;-73
2022/02/28 06:57:27;;;;;;;5.17;4.62;;;;;;;7.87;41.83;102058.05;1735975;82;20850;-74
2022/02/28 06:59:54;;;;;;;6.45;4.25;;;;;;;7.23;43.02;102044.35;1736253;82;20921;-74
2022/02/28 07:02:21;;;;;;;7.42;4.50;;;;;;;6.66;43.90;102046.48;1736115;82;20980;-75
2022/02/28 07:04:49;;;;;;;8.30;4.92;;;;;;;6.14;45.16;102044.47;1734901;82;20916;-74
2022/02/28 07:07:17;;;;;;;5.10;4.58;;;;;;;5.84;45.95;102052.33;1736073;82;21757;-74
2022/02/28 07:09:45;;;;;;;6.87;5.33;;;;;;;5.45;47.07;102052.97;1715208;82;21467;-73
2022/02/28 07:12:13;;;;;;;5.70;4.75;;;;;;;5.02;48.13;102050.13;1736124;82;20964;-74
2022/02/28 07:14:39;;;;;;;4.90;4.42;;;;;;;4.68;48.87;102045.38;1735928;82;20936;-73
2022/02/28 07:17:06;;;;;;;9.13;5.17;;;;;;;4.52;49.52;102050.76;1736116;81;20932;-73
2022/02/28 07:19:33;;;;;;;6.17;4.28;;;;;;;4.37;50.08;102040.54;1736164;82;21931;-74
2022/02/28 07:22:00;;;;;;;6.33;4.62;;;;;;;4.20;50.71;102042.01;1735962;82;21126;-73
2022/02/28 07:24:29;;;;;;;7.62;5.28;;;;;;;4.02;51.26;102035.27;1736191;82;21046;-73
2022/02/28 07:26:55;;;;;;;8.80;5.87;;;;;;;3.87;51.82;102034.16;1736113;81;20992;-76
2022/02/28 07:29:22;;;;;;;7.83;5.15;;;;;;;3.67;52.25;102043.41;1736384;81;20933;-75
2022/02/28 07:31:49;;;;;;;6.58;4.92;;;;;;;3.49;52.97;102043.09;1736123;81;21150;-73
2022/02/28 07:34:15;;;;;;;7.97;5.20;;;;;;;3.26;53.40;102036.34;1736252;82;20897;-75
2022/02/28 07:36:43;;;;;;;5.62;4.72;;;;;;;3.06;54.14;102040.80;1736309;82;20905;-74
2022/02/28 07:39:09;;;;;;;8.20;5.22;;;;;;;2.94;54.76;102046.06;1736430;82;20893;-74
2022/02/28 07:41:37;;;;;;;9.75;5.22;;;;;;;2.91;54.86;102049.50;1736275;82;21299;-75
2022/02/28 07:44:05;;;;;;;6.83;5.20;;;;;;;3.00;55.22;102039.53;1736537;82;22365;-75
2022/02/28 07:46:32;;;;;;;6.15;4.70;;;;;;;3.15;55.16;102034.26;1736122;81;20901;-74
2022/02/28 07:48:59;;;;;;;8.13;4.95;;;;;;;3.45;55.04;102030.59;1736127;82;21437;-75
2022/02/28 07:51:27;;;;;;;6.22;4.37;;;;;;;4.07;54.54;102024.42;1736223;82;20901;-75
2022/02/28 07:53:54;;;;;;;6.70;4.62;;;;;;;4.91;53.10;102022.97;1736433;81;20925;-74
2022/02/28 07:56:20;;;;;;;4.42;4.00;;;;;;;5.78;51.27;102020.74;1736182;82;21537;-75
2022/02/28 07:58:48;;;;;;;6.30;4.85;;;;;;;6.70;49.11;102021.62;1736099;82;20974;-75
2022/02/28 08:01:14;;;;;;;8.13;5.37;;;;;;;7.52;47.29;102018.01;1736134;81;20993;-75
2022/02/28 08:03:41;;;;;;;6.70;4.70;;;;;;;8.37;45.54;102011.85;1736091;82;20968;-75
2022/02/28 08:06:07;;;;;;;5.75;5.15;;;;;;;9.13;43.57;102011.34;1736251;82;20837;-75
2022/02/28 08:08:35;;;;;;;6.25;5.50;;;;;;;9.69;42.02;102009.95;1736174;82;21190;-74
2022/02/28 08:11:03;;;;;;;8.25;6.15;;;;;;;10.06;41.12;102009.13;1736051;82;20932;-74
2022/02/28 08:13:31;;;;;;;6.95;5.00;;;;;;;10.35;40.94;102012.88;1736145;82;21580;-75
2022/02/28 08:16:00;;;;;;;7.62;6.03;;;;;;;10.67;39.73;102009.97;1739439;81;20920;-75
2022/02/28 08:18:27;;;;;;;4.90;4.28;;;;;;;10.93;38.61;102001.95;1750257;82;20919;-75
2022/02/28 08:20:54;;;;;;;5.08;4.58;;;;;;;11.01;37.70;102002.97;1750259;80;21470;-75
2022/02/28 08:23:21;;;;;;;4.83;4.15;;;;;;;10.98;38.22;102012.27;1750130;80;20963;-73
2022/02/28 08:25:47;;;;;;;6.10;4.42;;;;;;;11.10;38.26;102012.26;1750178;82;20896;-74
2022/02/28 08:28:15;;;;;;;4.25;3.75;;;;;;;11.07;37.90;102008.42;1750096;82;20975;-76
2022/02/28 08:30:41;;;;;;;5.45;4.10;;;;;;;11.12;37.55;102002.09;1750087;82;21536;-73
2022/02/28 08:33:07;;;;;;;5.62;4.87;;;;;;;10.73;37.92;102004.03;1750481;80;21476;-73
2022/02/28 08:35:34;;;;;;;5.53;4.62;;;;;;;10.09;39.15;102001.14;1750055;82;20892;-73
2022/02/28 08:38:01;;;;;;;5.10;4.00;;;;;;;10.09;39.15;102001.14;1750450;82;20944;-75
2022/02/28 08:40:27;;;;;;;4.60;4.10;;;;;;;9.59;39.79;102008.55;1750175;80;20857;-75
2022/02/28 08:42:54;;;;;;;4.78;3.92;;;;;;;8.96;40.62;102010.58;1750508;82;20967;-75
2022/02/28 08:45:21;;;;;;;4.87;3.87;;;;;;;8.47;41.81;102005.05;1750174;82;21798;-74
2022/02/28 08:47:48;;;;;;;4.62;3.83;;;;;;;7.97;42.92;102005.96;1750099;82;20861;-75
2022/02/28 08:50:16;;;;;;;6.80;4.35;;;;;;;7.29;44.17;102010.72;1750191;82;20975;-74
2022/02/28 08:52:44;;;;;;;6.42;4.45;;;;;;;6.87;45.30;102012.14;1750065;82;20932;-74
2022/02/28 08:55:11;;;;;;;7.55;4.40;;;;;;;6.64;45.77;102016.53;1750215;82;21007;-75
2022/02/28 08:57:37;;;;;;;4.72;4.22;;;;;;;6.41;46.61;102014.41;1750456;82;22073;-74
2022/02/28 09:00:08;;;;;;;4.80;3.80;;;;;;;6.13;46.87;102016.23;1750137;82;21085;-73
2022/02/28 09:02:36;;;;;;;8.75;5.35;;;;;;;5.89;47.54;102012.75;1750618;82;21402;-73
2022/02/28 09:05:04;;;;;;;6.47;4.78;;;;;;;5.70;48.15;102018.73;1750066;80;20945;-73
2022/02/28 09:07:32;;;;;;;6.08;4.67;;;;;;;5.49;48.89;102018.64;1750239;81;20932;-74
2022/02/28 09:09:59;;;;;;;8.63;5.65;;;;;;;5.15;49.53;102010.06;1750183;80;21022;-73
2022/02/28 09:12:26;;;;;;;5.33;4.10;;;;;;;4.78;50.19;102021.00;1750078;82;20932;-74
2022/02/28 09:14:54;;;;;;;6.53;4.90;;;;;;;4.55;51.03;102009.59;1750035;80;21334;-73
2022/02/28 09:17:23;;;;;;;5.03;4.30;;;;;;;4.33;51.58;102007.24;1750006;82;20979;-73
2022/02/28 09:19:49;;;;;;;6.45;4.87;;;;;;;4.20;52.22;102006.95;1750273;80;21376;-74
2022/02/28 09:22:18;;;;;;;5.25;4.50;;;;;;;4.06;52.79;101999.33;1750149;80;21156;-74
2022/02/28 09:24:46;;;;;;;6.95;5.12;;;;;;;3.97;53.09;101999.43;1750018;82;20979;-74
2022/02/28 09:27:12;;;;;;;5.95;4.80;;;;;;;3.94;53.65;101997.73;1750028;80;20971;-75
2022/02/28 09:29:39;;;;;;;6.42;5.17;;;;;;;3.90;53.81;101999.93;1750621;82;20873;-75
2022/02/28 09:32:08;;;;;;;6.22;4.60;;;;;;;3.89;53.71;102001.23;1750193;81;20884;-74
2022/02/28 09:34:34;;;;;;;9.50;4.12;;;;;;;3.88;53.37;101996.94;1750456;82;21803;-74
2022/02/28 09:37:01;;;;;;;5.20;4.70;;;;;;;3.76;53.64;101999.63;1749992;82;21468;-75
2022/02/28 09:39:29;;;;;;;5.20;4.15;;;;;;;3.67;53.81;102002.75;1750128;81;20885;-75
2022/02/28 09:42:06;;;;;;;9.73;6.28;;;;;;;3.65;54.08;102002.35;1694987;83;20937;-75
2022/02/28 09:44:51;;;;;;;8.60;5.70;;;;;;;3.65;54.41;102003.20;1750303;80;20939;-74
2022/02/28 09:47:23;;;;;;;6.30;4.90;;;;;;;3.70;54.45;102003.16;1735839;82;21115;-74
2022/02/28 09:50:00;;;;;;;6.95;5.15;;;;;;;3.72;54.37;102004.01;1686772;83;20904;-75
2022/02/28 09:52:30;;;;;;;8.40;4.95;;;;;;;3.67;54.19;101998.86;1694040;82;20861;-75
2022/02/28 09:54:57;;;;;;;11.53;6.10;;;;;;;3.58;54.42;101994.17;1750161;82;20857;-74
2022/02/28 09:57:50;;;;;;;;;;;;;;;3.51;54.65;101998.14;1752809;82;21327;-74
2022/02/28 10:00:23;;;;;;;6.10;5.25;;;;;;;3.50;54.54;101999.44;1749474;80;21121;-74
2022/02/28 10:02:51;;;;;;;6.03;5.08;;;;;;;3.42;54.68;101996.89;1722209;82;20940;-75
2022/02/28 10:05:19;;;;;;;7.55;5.70;;;;;;;3.36;54.82;101993.48;1750083;81;21422;-73
2022/02/28 10:07:56;;;;;;;5.05;4.40;;;;;;;3.32;55.08;101990.94;1750074;80;20964;-73
2022/02/28 10:10:24;;;;;;;6.17;4.45;;;;;;;3.32;55.11;102000.01;1749586;82;20931;-74
2022/02/28 10:12:52;;;;;;;8.93;5.90;;;;;;;3.25;55.41;102000.08;1750037;82;21095;-75
2022/02/28 10:15:25;;;;;;;7.03;5.60;;;;;;;3.26;55.55;101997.89;1749960;80;20960;-73
2022/02/28 10:17:57;;;;;;;6.45;5.03;;;;;;;3.29;55.37;101997.86;1749958;82;20963;-75
2022/02/28 10:20:30;;;;;;;6.42;5.05;;;;;;;3.25;55.49;101994.45;1750249;82;20935;-74
2022/02/28 10:23:08;;;;;;;5.60;4.25;;;;;;;3.18;55.48;102001.86;1749701;80;20932;-74
2022/02/28 10:25:45;;;;;;;6.87;5.10;;;;;;;3.08;55.68;101997.15;1741516;82;21144;-73
2022/02/28 10:28:30;;;;;;;10.05;4.92;;;;;;;2.93;55.99;101997.24;1750055;80;20880;-75
2022/02/28 10:31:15;;;;;;;5.20;4.40;;;;;;;2.84;55.94;102002.05;1750115;82;20889;-75
2022/02/28 10:34:00;;;;;;;6.78;5.03;;;;;;;2.81;56.16;102002.08;1750196;81;21382;-74
2022/02/28 10:37:00;;;;;;;7.12;5.05;;;;;;;2.68;56.33;102006.89;1684770;82;20880;-76
2022/02/28 10:39:38;;;;;;;7.78;5.10;;;;;;;2.54;56.76;102004.81;1749991;82;21150;-75
2022/02/28 10:42:11;;;;;;;5.80;4.62;;;;;;;2.44;56.99;102003.97;1750287;82;20972;-73
2022/02/28 10:44:37;;;;;;;6.40;4.40;;;;;;;2.42;57.19;101995.34;1750057;82;20900;-74
2022/02/28 10:47:09;;;;;;;6.65;3.95;;;;;;;2.42;57.12;102003.11;1750276;82;21366;-73
2022/02/28 10:49:36;;;;;;;6.28;4.70;;;;;;;2.40;57.16;101996.67;1750056;82;20869;-75
2022/02/28 10:52:12;;;;;;;6.67;4.00;;;;;;;2.45;57.25;101987.58;1750377;80;21501;-75
2022/02/28 10:54:44;;;;;;;5.37;4.30;;;;;;;2.44;57.24;101988.00;1749886;82;20923;-74
2022/02/28 10:57:18;;;;;;;5.10;3.77;;;;;;;2.46;57.27;101990.14;1750230;82;20908;-74
2022/02/28 10:59:54;;;;;;;6.00;4.42;;;;;;;2.50;57.04;101989.71;1750129;80;21446;-75
2022/02/28 11:02:32;;;;;;;5.15;4.47;;;;;;;2.50;56.96;101987.13;1750321;82;20833;-76
2022/02/28 11:05:12;;;;;;;5.87;4.70;;;;;;;2.54;56.92;101981.06;1750008;82;21207;-75
2022/02/28 11:07:49;;;;;;;5.47;4.35;;;;;;;2.53;57.10;101976.73;1750327;82;21470;-75
2022/02/28 11:10:17;;;;;;;5.80;3.92;;;;;;;2.46;57.32;101976.34;1749977;82;20972;-75
2022/02/28 11:12:45;;;;;;;6.30;4.80;;;;;;;2.50;57.69;101970.30;1750252;82;20948;-73
2022/02/28 11:15:15;;;;;;;7.30;4.35;;;;;;;2.50;57.72;101983.23;1750028;80;20936;-75
2022/02/28 11:17:46;;;;;;;5.30;4.08;;;;;;;2.51;57.54;101970.70;1742084;82;21870;-74
2022/02/28 11:20:17;;;;;;;6.03;4.35;;;;;;;2.50;57.52;101971.59;1735968;81;20972;-74
2022/02/28 11:22:46;;;;;;;6.20;4.50;;;;;;;2.44;57.62;101975.48;1736064;82;20969;-75
2022/02/28 11:25:16;;;;;;;7.15;4.75;;;;;;;2.35;58.00;101971.66;1736403;82;21082;-74
2022/02/28 11:27:44;;;;;;;5.03;4.35;;;;;;;2.39;57.86;101966.89;1736114;81;20893;-75
2022/02/28 11:31:17;;;;;;;4.80;4.30;;;;;;;2.50;57.94;101970.30;1816353;79;22596;-73
2022/02/28 11:34:03;;;;;;;5.90;4.58;;;;;;;2.45;57.68;101971.61;1789479;80;20920;-73
2022/02/28 11:36:48;;;;;;;6.58;4.83;;;;;;;2.41;57.93;101969.05;1784793;80;21138;-74
2022/02/28 11:39:15;;;;;;;7.42;4.60;;;;;;;2.37;58.11;101965.59;1789761;80;21401;-75